Time;durP1;ratioP1;P1;durP2;ratioP2;P2;SDS_P1;SDS_P2;PMS_P1;PMS_P2;Temp;Humidity;BMP_temperature;BMP_pressure;BME280_temperature;BME280_humidity;BME280_pressure;Samples;Min_cycle;Max_cycle;Signal;HPM_P1;HPM_P2
2022/04/19 11:47:48;;;;;;;7.70;4.47;;;15.50;99.90;;;;;;5147943;27;20643;-66
2022/04/19 11:50:31;;;;;;;4.28;3.97;;;15.30;99.90;;;;;;5131705;28;20166;-66
2022/04/19 11:53:00;;;;;;;4.90;4.50;;;15.40;99.90;;;;;;5131637;28;20155;-66
2022/04/19 11:55:27;;;;;;;5.32;4.82;;;15.50;99.90;;;;;;5131580;28;20186;-66
2022/04/19 11:58:09;;;;;;;5.18;4.22;;;15.50;99.90;;;;;;5131747;28;20178;-67
2022/04/19 12:00:35;;;;;;;8.32;5.07;;;15.60;99.90;;;;;;5130311;28;20177;-67
2022/04/19 12:03:04;;;;;;;5.72;5.00;;;15.70;99.90;;;;;;5131435;28;20228;-67
2022/04/19 12:05:30;;;;;;;5.35;4.88;;;15.80;99.90;;;;;;5129996;28;20666;-67
2022/04/19 12:07:57;;;;;;;5.20;4.10;;;16.00;99.90;;;;;;5131389;27;20245;-67
2022/04/19 12:10:23;;;;;;;4.50;4.07;;;16.10;99.90;;;;;;5131220;28;20628;-67
2022/04/19 12:12:52;;;;;;;4.15;3.83;;;16.30;99.90;;;;;;5131233;28;20559;-67
2022/04/19 12:15:37;;;;;;;4.80;4.35;;;16.40;99.90;;;;;;5131227;28;20158;-67
2022/04/19 12:18:03;;;;;;;4.72;4.13;;;16.60;99.90;;;;;;5131147;28;20170;-67
2022/04/19 12:20:28;;;;;;;5.63;4.93;;;16.70;99.90;;;;;;5131144;28;20524;-67
2022/04/19 12:22:54;;;;;;;4.25;3.85;;;16.80;99.90;;;;;;5131135;27;20212;-67
2022/04/19 12:25:23;;;;;;;4.20;3.90;;;17.00;99.90;;;;;;5130992;28;20249;-67
2022/04/19 12:27:51;;;;;;;4.93;4.28;;;17.00;99.90;;;;;;5131007;27;20162;-67
2022/04/19 12:30:17;;;;;;;5.90;4.25;;;17.10;99.90;;;;;;5130972;28;20155;-67
2022/04/19 12:32:54;;;;;;;4.22;3.92;;;17.20;99.90;;;;;;5130923;28;20388;-67
2022/04/19 12:35:34;;;;;;;5.13;3.80;;;17.20;99.90;;;;;;5130915;27;20249;-67
2022/04/19 12:38:13;;;;;;;5.15;4.35;;;17.30;99.90;;;;;;5130887;27;20158;-67
2022/04/19 12:40:40;;;;;;;4.68;4.28;;;17.40;99.90;;;;;;5130807;28;20166;-67
2022/04/19 12:43:06;;;;;;;4.47;4.18;;;17.50;99.90;;;;;;5130706;27;20186;-67
2022/04/19 12:45:37;;;;;;;4.32;3.90;;;17.60;99.90;;;;;;5130494;28;20243;-67
2022/04/19 12:48:04;;;;;;;4.95;4.65;;;17.60;99.90;;;;;;5130712;28;20203;-67
2022/04/19 12:50:30;;;;;;;6.10;5.30;;;17.80;99.90;;;;;;5130603;28;20172;-67
2022/04/19 12:52:55;;;;;;;6.63;4.55;;;17.80;99.90;;;;;;5129244;28;20646;-67
2022/04/19 12:55:29;;;;;;;5.10;4.57;;;17.90;99.90;;;;;;5130404;27;20166;-67
2022/04/19 12:58:10;;;;;;;7.82;4.78;;;18.10;99.90;;;;;;5122697;28;20178;-67
2022/04/19 13:00:36;;;;;;;5.57;3.85;;;18.00;99.90;;;;;;5116737;28;20699;-67
2022/04/19 13:03:03;;;;;;;4.50;4.20;;;18.10;99.90;;;;;;5116661;28;20205;-67
2022/04/19 13:13:41;;;;;;;4.05;3.75;;;18.70;99.90;;;;;;5116435;28;20260;-67
2022/04/19 13:16:07;;;;;;;4.03;3.72;;;18.80;99.90;;;;;;5116415;28;20170;-67
2022/04/19 13:18:33;;;;;;;3.63;3.42;;;18.80;99.90;;;;;;5116382;28;20236;-67
2022/04/19 13:20:59;;;;;;;4.43;4.13;;;19.00;99.90;;;;;;5116335;28;20159;-67
2022/04/19 13:23:25;;;;;;;4.40;4.00;;;18.90;99.90;;;;;;5116263;28;20173;-67
2022/04/19 13:25:51;;;;;;;4.75;4.35;;;18.90;99.90;;;;;;5116126;28;20187;-67
2022/04/19 13:28:17;;;;;;;4.50;3.92;;;19.00;99.90;;;;;;5116164;28;20163;-67
2022/04/19 13:30:43;;;;;;;4.25;3.70;;;18.90;99.90;;;;;;5114821;28;20673;-67
2022/04/19 13:33:09;;;;;;;4.68;4.22;;;19.00;99.90;;;;;;5116058;28;20187;-67
2022/04/19 13:35:34;;;;;;;4.25;3.78;;;19.10;99.90;;;;;;5116113;28;20531;-67
2022/04/19 13:40:44;;;;;;;4.15;3.75;;;19.30;99.90;;;;;;5116130;28;20181;-67
2022/04/19 13:43:10;;;;;;;4.15;3.78;;;19.40;99.90;;;;;;5115821;28;20166;-67
2022/04/19 13:45:36;;;;;;;4.38;3.95;;;19.50;99.90;;;;;;5115675;28;20229;-67
2022/04/19 13:48:02;;;;;;;4.20;3.90;;;19.70;99.90;;;;;;5115832;28;20526;-67
2022/04/19 13:50:27;;;;;;;4.57;3.50;;;19.90;99.90;;;;;;5115915;28;20249;-67
2022/04/19 13:52:53;;;;;;;4.57;4.28;;;19.90;99.90;;;;;;5115750;28;20173;-67
2022/04/19 13:55:21;;;;;;;4.55;4.10;;;20.00;99.90;;;;;;5115688;28;20159;-67
2022/04/19 13:57:49;;;;;;;8.63;3.78;;;20.10;99.90;;;;;;5115554;28;20171;-67
2022/04/19 14:00:15;;;;;;;4.22;3.83;;;20.10;99.90;;;;;;5115577;28;20182;-67
2022/04/19 14:02:42;;;;;;;3.95;3.65;;;20.20;99.90;;;;;;5115552;28;20211;-67
2022/04/19 14:05:09;;;;;;;4.80;3.40;;;20.20;99.90;;;;;;5114504;28;20523;-67
2022/04/19 14:07:34;;;;;;;4.78;4.35;;;20.30;99.90;;;;;;5115333;28;20198;-67
2022/04/19 14:10:00;;;;;;;5.13;3.90;;;20.20;99.90;;;;;;5114381;28;20189;-67
2022/04/19 14:12:27;;;;;;;3.65;3.35;;;20.30;99.90;;;;;;5115292;28;20167;-67
2022/04/19 14:14:52;;;;;;;3.90;3.70;;;20.30;99.90;;;;;;5115203;28;20162;-67
2022/04/19 14:17:18;;;;;;;3.72;3.53;;;20.40;99.90;;;;;;5113951;28;20541;-67
2022/04/19 14:19:43;;;;;;;3.42;3.20;;;20.40;99.90;;;;;;5115289;28;20218;-67
2022/04/19 14:22:09;;;;;;;3.83;3.42;;;20.50;99.90;;;;;;5113866;28;20170;-67
2022/04/19 14:24:35;;;;;;;3.28;3.08;;;20.50;99.90;;;;;;5115120;28;20641;-67
2022/04/19 14:27:00;;;;;;;3.80;3.50;;;20.70;99.90;;;;;;5114874;28;20201;-67
2022/04/19 14:34:59;;;;;;;3.83;3.63;;;20.70;99.90;;;;;;5114795;28;20190;-67
2022/04/19 14:37:25;;;;;;;3.80;3.42;;;20.70;99.90;;;;;;5114804;28;20529;-67
2022/04/19 14:39:50;;;;;;;4.88;3.42;;;20.40;99.90;;;;;;5114906;28;20174;-67
2022/04/19 14:42:16;;;;;;;4.32;4.03;;;20.60;99.90;;;;;;5113412;28;20175;-67
2022/04/19 14:44:41;;;;;;;4.95;3.88;;;20.70;99.90;;;;;;5114665;28;20662;-67
2022/04/19 14:47:07;;;;;;;3.70;3.00;;;20.70;99.90;;;;;;5114401;28;20744;-67
2022/04/19 14:49:32;;;;;;;3.65;3.33;;;20.70;99.90;;;;;;5114626;28;20166;-67
2022/04/19 14:54:43;;;;;;;2.88;2.78;;;20.70;99.90;;;;;;5114497;28;20212;-67
2022/04/19 14:57:09;;;;;;;9.02;3.30;;;20.80;99.90;;;;;;5114588;28;20166;-67
2022/04/19 14:59:35;;;;;;;3.72;3.53;;;20.90;99.90;;;;;;5113188;28;20200;-67
2022/04/19 15:02:00;;;;;;;3.38;3.17;;;21.00;99.90;;;;;;5114361;28;20189;-67
2022/04/19 15:04:26;;;;;;;3.25;3.03;;;21.10;99.90;;;;;;5114244;28;20523;-67
2022/04/19 15:06:52;;;;;;;2.85;2.72;;;21.10;99.90;;;;;;5114218;28;20289;-67
2022/04/19 15:09:18;;;;;;;3.40;2.95;;;21.20;99.90;;;;;;5114266;28;20171;-67
2022/04/19 15:11:45;;;;;;;2.92;2.72;;;21.20;99.90;;;;;;5114186;28;20174;-67
2022/04/19 15:14:11;;;;;;;2.65;2.53;;;21.20;99.90;;;;;;5114185;28;20215;-67
2022/04/19 15:16:37;;;;;;;2.90;2.75;;;21.10;99.90;;;;;;5114170;28;20245;-67
2022/04/19 15:19:03;;;;;;;6.97;2.53;;;21.10;99.90;;;;;;5114022;28;20257;-67
2022/04/19 15:21:28;;;;;;;2.60;2.40;;;21.30;99.90;;;;;;5113854;28;20193;-67
2022/04/19 15:23:55;;;;;;;2.75;2.55;;;21.50;99.90;;;;;;5114002;28;20193;-67
2022/04/19 15:26:21;;;;;;;2.50;2.40;;;21.50;99.90;;;;;;5113987;28;20194;-67
2022/04/19 15:28:47;;;;;;;2.70;2.50;;;21.60;99.90;;;;;;5114021;28;20166;-67
2022/04/19 15:31:13;;;;;;;2.45;1.92;;;21.60;99.90;;;;;;5113954;28;20623;-67
2022/04/19 15:33:39;;;;;;;3.70;2.42;;;21.50;99.90;;;;;;5113785;28;20182;-67
2022/04/19 15:36:05;;;;;;;2.75;2.47;;;21.50;99.90;;;;;;5113693;28;20699;-67
2022/04/19 15:38:31;;;;;;;3.85;2.38;;;21.60;99.90;;;;;;5113672;28;20174;-67
2022/04/19 15:40:57;;;;;;;2.47;2.15;;;21.60;99.90;;;;;;5113656;28;20512;-67
2022/04/19 15:43:23;;;;;;;2.63;2.40;;;21.40;99.90;;;;;;5113629;28;20253;-67
2022/04/19 15:45:49;;;;;;;2.40;2.30;;;21.40;99.90;;;;;;5113483;28;20278;-67
2022/04/19 15:48:18;;;;;;;2.47;2.25;;;21.30;99.90;;;;;;5112494;28;20250;-67
2022/04/19 15:50:45;;;;;;;2.80;2.60;;;21.30;99.90;;;;;;5113718;28;20159;-67
2022/04/19 15:53:12;;;;;;;3.95;2.40;;;21.30;99.90;;;;;;5113693;28;20158;-67
2022/04/19 15:55:38;;;;;;;2.53;2.42;;;21.20;99.90;;;;;;5113716;28;20214;-67
2022/04/19 15:58:04;;;;;;;3.85;2.10;;;21.10;99.90;;;;;;5113654;28;20625;-67
2022/04/19 16:00:29;;;;;;;6.47;2.45;;;21.00;99.90;;;;;;5113547;28;20253;-67
2022/04/19 16:02:55;;;;;;;1.98;1.88;;;21.00;99.20;;;;;;5113641;28;20170;-67
2022/04/19 16:05:22;;;;;;;2.35;1.70;;;20.80;99.90;;;;;;5113520;28;20177;-67
2022/04/19 16:07:48;;;;;;;1.70;1.60;;;20.90;99.90;;;;;;5113552;28;20170;-67
2022/04/19 16:10:14;;;;;;;1.83;1.73;;;21.00;99.90;;;;;;5113491;28;20166;-67
2022/04/19 16:12:45;;;;;;;2.25;1.83;;;21.00;99.90;;;;;;5113496;28;20232;-67
2022/04/19 16:15:15;;;;;;;2.30;1.73;;;21.10;99.90;;;;;;5113455;28;20170;-67
2022/04/19 16:23:22;;;;;;;2.33;1.90;;;21.00;99.80;;;;;;5113434;28;20239;-67
2022/04/19 16:25:59;;;;;;;3.13;2.00;;;20.90;98.50;;;;;;5113354;28;20197;-67
2022/04/19 16:28:27;;;;;;;1.85;1.75;;;20.80;98.90;;;;;;5112169;28;20627;-67
2022/04/19 16:30:58;;;;;;;2.22;2.13;;;20.70;98.90;;;;;;5113356;28;20165;-67
2022/04/19 16:33:24;;;;;;;3.58;2.17;;;20.70;99.20;;;;;;5115520;28;20534;-67
2022/04/19 16:35:51;;;;;;;2.13;1.83;;;20.80;99.50;;;;;;5117209;28;20181;-67
2022/04/19 16:38:17;;;;;;;1.90;1.80;;;20.70;96.10;;;;;;5117120;28;20659;-67
2022/04/19 16:40:44;;;;;;;2.20;1.90;;;20.70;95.50;;;;;;5117086;28;20376;-67
2022/04/19 16:43:13;;;;;;;1.63;1.52;;;20.50;95.00;;;;;;5115794;28;20170;-67
2022/04/19 16:45:39;;;;;;;2.20;1.35;;;20.60;94.50;;;;;;5116680;28;20683;-67
2022/04/19 16:48:06;;;;;;;1.90;1.80;;;20.60;94.30;;;;;;5116966;28;20173;-67
2022/04/19 16:50:32;;;;;;;1.83;1.50;;;20.40;93.40;;;;;;5116928;28;20181;-67
2022/04/19 16:52:59;;;;;;;1.55;1.30;;;20.40;92.80;;;;;;5116854;28;20592;-67
2022/04/19 16:55:30;;;;;;;1.85;1.55;;;20.30;92.00;;;;;;5116849;28;20170;-67
2022/04/19 16:57:57;;;;;;;1.50;1.40;;;20.10;92.20;;;;;;5116774;28;20162;-67
2022/04/19 17:00:24;;;;;;;1.45;1.35;;;20.10;91.90;;;;;;5116722;28;20158;-67
2022/04/19 17:02:50;;;;;;;4.68;1.67;;;19.90;91.60;;;;;;5116703;28;20162;-67
2022/04/19 17:05:15;;;;;;;1.60;1.50;;;19.70;92.90;;;;;;5115311;28;20171;-67
2022/04/19 17:07:41;;;;;;;1.73;1.60;;;19.50;91.90;;;;;;5116531;28;20194;-67
2022/04/19 17:10:08;;;;;;;1.33;1.23;;;19.20;92.40;;;;;;5116574;28;20181;-67
2022/04/19 17:12:33;;;;;;;1.48;1.35;;;18.90;92.00;;;;;;5116442;28;20167;-67
2022/04/19 17:14:59;;;;;;;1.95;1.23;;;18.80;92.30;;;;;;5116435;28;20162;-67
2022/04/19 17:17:24;;;;;;;1.52;1.35;;;18.70;92.70;;;;;;5116397;28;20209;-67
2022/04/19 17:19:50;;;;;;;1.70;1.60;;;18.50;91.90;;;;;;5115025;28;20235;-67
2022/04/19 17:22:16;;;;;;;1.50;1.50;;;18.30;92.40;;;;;;5116290;28;20170;-67
2022/04/19 17:24:42;;;;;;;9.75;2.15;;;18.20;92.50;;;;;;5116260;28;20268;-67
2022/04/19 17:27:08;;;;;;;7.05;2.08;;;18.00;93.70;;;;;;5116176;28;20528;-67
2022/04/19 17:29:34;;;;;;;6.70;2.13;;;17.90;94.00;;;;;;5116206;28;20170;-67
2022/04/19 17:31:59;;;;;;;2.10;1.92;;;17.70;93.30;;;;;;5116123;28;20171;-67
2022/04/19 17:34:26;;;;;;;6.53;1.92;;;17.50;94.50;;;;;;5115948;28;20256;-67
2022/04/19 17:36:52;;;;;;;3.08;2.13;;;17.20;94.60;;;;;;5116046;28;20245;-67
2022/04/19 17:39:18;;;;;;;2.20;2.10;;;17.10;95.30;;;;;;5116047;28;20826;-66
2022/04/19 17:41:44;;;;;;;2.30;2.20;;;17.00;95.60;;;;;;5115782;28;20217;-66
2022/04/19 17:44:14;;;;;;;2.38;2.28;;;16.90;97.10;;;;;;5115799;28;20632;-67
2022/04/19 17:46:39;;;;;;;36.17;5.63;;;16.60;97.50;;;;;;5113672;28;20254;-67
2022/04/19 17:49:06;;;;;;;6.28;1.80;;;16.40;97.70;;;;;;5115627;28;20210;-67
2022/04/19 17:57:02;;;;;;;2.55;2.20;;;15.90;99.10;;;;;;5115899;28;20610;-66
2022/04/19 17:59:28;;;;;;;2.47;2.28;;;15.70;98.30;;;;;;5115585;28;20685;-65
2022/04/19 18:01:54;;;;;;;16.60;2.92;;;15.30;99.70;;;;;;5115507;28;20170;-66
2022/04/19 18:04:20;;;;;;;9.38;3.75;;;15.20;99.90;;;;;;5115439;28;20683;-66
2022/04/19 18:06:46;;;;;;;2.85;2.47;;;15.00;99.90;;;;;;5115405;28;20190;-66
2022/04/19 18:09:11;;;;;;;3.10;2.80;;;14.90;99.90;;;;;;5115381;28;20241;-66
2022/04/19 18:11:37;;;;;;;8.25;2.42;;;14.70;99.90;;;;;;5115367;28;20219;-66
2022/04/19 18:14:03;;;;;;;2.55;2.40;;;14.60;99.90;;;;;;5115198;28;20489;-66
2022/04/19 18:16:29;;;;;;;2.50;2.40;;;14.50;99.90;;;;;;5115117;28;20178;-66
2022/04/19 18:18:55;;;;;;;2.88;2.65;;;14.40;99.90;;;;;;5115097;28;20183;-66
2022/04/19 18:21:21;;;;;;;2.78;2.42;;;14.20;99.90;;;;;;5115084;28;20225;-66
2022/04/19 18:26:31;;;;;;;2.70;2.60;;;14.00;99.90;;;;;;5115018;28;20266;-66
